Time;durP1;ratioP1;P1;durP2;ratioP2;P2;SDS_P1;SDS_P2;PMS_P1;PMS_P2;Temp;Humidity;BMP_temperature;BMP_pressure;BME280_temperature;BME280_humidity;BME280_pressure;Samples;Min_cycle;Max_cycle;Signal;HPM_P1;HPM_P2
2021/01/22 00:01:46;;;;;;;104.03;82.68;;;10.50;99.90;;;;;;5008363;28;20026;-76
2021/01/22 00:04:11;;;;;;;119.43;88.68;;;10.50;99.90;;;;;;5012878;28;20548;-76
2021/01/22 00:06:37;;;;;;;99.22;80.07;;;10.50;99.90;;;;;;5013933;28;20030;-76
2021/01/22 00:09:04;;;;;;;108.47;86.10;;;10.40;99.90;;;;;;5012755;28;20532;-76
2021/01/22 00:11:29;;;;;;;103.55;83.47;;;10.40;99.90;;;;;;5004641;28;20030;-75
2021/01/22 00:13:55;;;;;;;107.97;80.97;;;10.50;99.90;;;;;;5003748;28;20034;-75
2021/01/22 00:16:21;;;;;;;104.10;83.45;;;10.50;99.90;;;;;;5012105;28;20061;-75
2021/01/22 00:18:46;;;;;;;123.32;94.80;;;10.50;99.90;;;;;;5012263;28;20494;-75
2021/01/22 00:21:12;;;;;;;115.55;91.72;;;10.50;99.90;;;;;;5013124;28;20109;-76
2021/01/22 00:23:38;;;;;;;103.45;82.40;;;10.50;99.90;;;;;;5013058;28;20519;-78
2021/01/22 00:26:05;;;;;;;146.10;108.45;;;10.70;99.90;;;;;;5012685;28;20056;-76
2021/01/22 00:28:31;;;;;;;113.78;87.03;;;10.60;99.90;;;;;;5013938;28;20025;-75
2021/01/22 00:30:57;;;;;;;126.43;96.13;;;10.60;99.90;;;;;;5012733;28;20117;-79
2021/01/22 00:33:23;;;;;;;135.32;103.82;;;10.50;99.90;;;;;;5011966;28;20022;-75
2021/01/22 00:35:49;;;;;;;148.57;110.63;;;10.50;99.90;;;;;;5012538;28;20030;-76
2021/01/22 00:38:16;;;;;;;152.85;109.55;;;10.50;99.90;;;;;;5013958;28;20050;-75
2021/01/22 00:40:42;;;;;;;146.32;110.22;;;10.50;99.90;;;;;;5012381;28;20397;-75
2021/01/22 00:43:07;;;;;;;141.27;105.50;;;10.50;99.90;;;;;;5003969;28;20034;-76
2021/01/22 00:45:33;;;;;;;148.32;104.55;;;10.60;99.90;;;;;;5012386;28;20030;-75
2021/01/22 00:47:59;;;;;;;141.93;102.18;;;10.60;99.90;;;;;;5010801;28;20109;-75
2021/01/22 00:50:25;;;;;;;137.55;105.80;;;10.50;99.90;;;;;;5013735;28;20045;-75
2021/01/22 00:52:52;;;;;;;134.50;104.15;;;10.60;99.90;;;;;;5014457;28;20022;-75
2021/01/22 00:55:18;;;;;;;142.05;105.78;;;10.50;99.90;;;;;;5022308;28;20033;-74
2021/01/22 00:57:44;;;;;;;140.63;108.88;;;10.50;99.90;;;;;;5027723;28;20029;-76
2021/01/22 01:00:11;;;;;;;131.45;103.10;;;10.50;99.90;;;;;;5016749;28;20037;-77
2021/01/22 01:02:37;;;;;;;132.23;102.72;;;10.50;99.90;;;;;;5013760;28;20033;-78
2021/01/22 01:05:04;;;;;;;139.35;99.57;;;10.40;99.90;;;;;;5012700;28;20437;-76
2021/01/22 01:07:30;;;;;;;133.27;100.28;;;10.50;99.90;;;;;;5012262;28;20026;-76
2021/01/22 01:09:56;;;;;;;138.95;95.53;;;10.50;99.90;;;;;;5012261;28;20018;-77
2021/01/22 01:12:22;;;;;;;126.00;100.65;;;10.50;99.90;;;;;;5007180;28;20240;-76
2021/01/22 01:14:48;;;;;;;111.72;83.22;;;10.40;99.90;;;;;;5011977;28;20052;-76
2021/01/22 01:17:13;;;;;;;99.60;72.35;;;10.40;99.90;;;;;;5013598;28;20014;-75
2021/01/22 01:19:39;;;;;;;101.30;77.88;;;10.40;99.90;;;;;;5013538;28;20029;-76
2021/01/22 01:22:05;;;;;;;112.13;81.82;;;10.40;99.90;;;;;;5011406;28;20029;-76
2021/01/22 01:24:30;;;;;;;103.47;72.85;;;10.40;99.90;;;;;;5012643;28;20048;-76
2021/01/22 01:26:56;;;;;;;59.35;44.67;;;10.40;99.90;;;;;;5011394;28;20477;-76
2021/01/22 01:29:22;;;;;;;82.35;64.55;;;10.70;99.90;;;;;;5011800;28;20089;-76
2021/01/22 01:31:48;;;;;;;60.92;42.97;;;10.80;99.90;;;;;;5012997;28;20045;-76
2021/01/22 01:34:13;;;;;;;59.47;38.47;;;10.90;99.90;;;;;;5012861;28;20022;-76
2021/01/22 01:36:39;;;;;;;45.15;25.85;;;10.80;99.90;;;;;;5013844;28;20032;-75
2021/01/22 01:39:05;;;;;;;54.30;32.20;;;11.00;99.90;;;;;;5011788;28;20673;-76
2021/01/22 01:41:31;;;;;;;43.58;23.92;;;11.00;99.90;;;;;;5013176;28;20026;-76
2021/01/22 01:43:57;;;;;;;46.95;24.40;;;11.10;99.90;;;;;;5000542;28;20077;-76
2021/01/22 01:46:23;;;;;;;35.00;20.60;;;11.10;99.90;;;;;;5006697;28;20030;-76
2021/01/22 01:48:49;;;;;;;28.60;14.35;;;11.20;99.90;;;;;;5014539;28;20022;-76
2021/01/22 01:51:15;;;;;;;32.28;12.05;;;11.30;99.90;;;;;;5013644;28;20548;-76
2021/01/22 01:53:41;;;;;;;31.13;10.13;;;11.40;99.90;;;;;;5009623;28;20030;-76
2021/01/22 01:56:07;;;;;;;21.40;9.88;;;11.60;99.90;;;;;;5011301;28;20160;-76
2021/01/22 01:58:33;;;;;;;34.60;11.40;;;11.80;99.90;;;;;;5015804;28;20069;-76
2021/01/22 02:00:59;;;;;;;19.98;10.27;;;11.90;99.90;;;;;;5015134;28;20529;-76
2021/01/22 02:03:26;;;;;;;22.67;7.63;;;12.10;99.90;;;;;;5012202;28;20026;-75
2021/01/22 02:05:52;;;;;;;20.48;7.82;;;12.00;99.90;;;;;;5012536;28;20434;-77
2021/01/22 02:08:18;;;;;;;28.17;8.32;;;12.10;99.90;;;;;;5011354;28;20064;-77
2021/01/22 02:10:45;;;;;;;26.80;7.25;;;12.10;99.90;;;;;;5013347;28;20032;-76
2021/01/22 02:13:13;;;;;;;19.83;6.20;;;12.20;99.90;;;;;;5014732;28;20022;-76
2021/01/22 02:15:39;;;;;;;16.85;5.45;;;12.20;99.90;;;;;;5011448;28;20088;-76
2021/01/22 02:18:06;;;;;;;22.98;5.10;;;12.40;99.90;;;;;;5010933;28;20030;-76
2021/01/22 02:20:50;;;;;;;20.58;4.72;;;12.40;99.90;;;;;;5012880;28;20503;-77
2021/01/22 02:23:19;;;;;;;21.85;5.40;;;12.50;99.90;;;;;;5009413;28;20022;-76
2021/01/22 02:25:46;;;;;;;29.80;8.38;;;12.50;99.90;;;;;;5011551;28;20478;-76
2021/01/22 02:28:14;;;;;;;16.67;4.65;;;12.50;99.90;;;;;;5016851;28;20085;-76
2021/01/22 02:30:44;;;;;;;14.95;4.03;;;12.60;99.90;;;;;;5014403;28;20533;-76
2021/01/22 02:33:13;;;;;;;16.80;4.72;;;12.70;99.90;;;;;;5014537;28;20042;-76
2021/01/22 02:35:40;;;;;;;15.95;5.68;;;12.70;99.90;;;;;;5016246;28;20029;-76
2021/01/22 02:38:07;;;;;;;19.02;4.60;;;12.80;99.90;;;;;;5017897;28;20077;-75
2021/01/22 02:40:35;;;;;;;17.48;5.05;;;12.80;99.90;;;;;;5016048;28;20129;-76
2021/01/22 02:43:03;;;;;;;12.68;3.88;;;12.80;99.90;;;;;;5007948;28;20037;-76
2021/01/22 02:45:29;;;;;;;22.00;4.75;;;12.70;99.90;;;;;;5015417;28;20109;-75
2021/01/22 02:47:56;;;;;;;16.33;4.00;;;12.70;99.90;;;;;;5017375;28;20049;-76
2021/01/22 02:50:33;;;;;;;24.67;6.05;;;12.80;99.90;;;;;;5015989;28;20493;-76
2021/01/22 02:53:00;;;;;;;21.55;4.60;;;12.80;99.90;;;;;;5013396;28;20109;-76
2021/01/22 02:55:27;;;;;;;17.60;3.78;;;12.90;99.90;;;;;;5016048;28;20032;-75
2021/01/22 02:57:56;;;;;;;18.52;4.57;;;12.90;99.90;;;;;;5014746;28;20030;-76
2021/01/22 03:00:28;;;;;;;14.43;4.97;;;12.80;99.90;;;;;;5008920;28;20026;-76
2021/01/22 03:03:01;;;;;;;9.02;3.10;;;12.90;99.90;;;;;;5016694;28;20026;-75
2021/01/22 03:05:30;;;;;;;20.85;4.43;;;13.00;99.90;;;;;;5012207;28;20076;-75
2021/01/22 03:08:02;;;;;;;13.77;3.83;;;13.00;99.90;;;;;;5014934;28;20049;-74
2021/01/22 03:10:30;;;;;;;24.40;4.72;;;13.10;99.90;;;;;;5016169;28;20084;-75
2021/01/22 03:12:57;;;;;;;17.08;3.95;;;13.10;99.90;;;;;;5014765;28;20075;-76
2021/01/22 03:15:24;;;;;;;20.67;4.40;;;13.20;99.90;;;;;;5012947;28;20079;-76
2021/01/22 03:17:50;;;;;;;13.93;3.83;;;13.10;99.90;;;;;;5015249;28;20041;-75
2021/01/22 03:20:17;;;;;;;13.80;3.83;;;13.20;99.90;;;;;;5015399;28;20037;-75
2021/01/22 03:22:43;;;;;;;18.42;4.07;;;13.30;99.90;;;;;;5014865;28;20026;-75
2021/01/22 03:25:10;;;;;;;11.75;4.05;;;13.20;99.90;;;;;;5013825;28;20367;-75
2021/01/22 03:27:36;;;;;;;20.42;3.97;;;13.30;99.90;;;;;;5014685;28;20034;-75
2021/01/22 03:30:04;;;;;;;18.30;4.45;;;13.20;99.90;;;;;;5015522;28;20022;-75
2021/01/22 03:32:30;;;;;;;20.63;4.93;;;13.20;99.90;;;;;;5015115;28;20025;-75
2021/01/22 03:34:56;;;;;;;17.80;4.95;;;13.20;99.90;;;;;;5013061;28;20120;-75
2021/01/22 03:37:22;;;;;;;25.27;4.38;;;13.10;99.90;;;;;;5015723;28;20022;-75
2021/01/22 03:39:48;;;;;;;18.67;4.13;;;13.10;99.90;;;;;;5013779;28;20018;-77
2021/01/22 03:42:14;;;;;;;23.80;6.72;;;12.90;99.90;;;;;;5013736;28;20394;-75
2021/01/22 03:44:39;;;;;;;10.30;3.40;;;12.80;99.90;;;;;;5014559;28;20395;-76
2021/01/22 03:47:06;;;;;;;25.60;4.60;;;12.70;99.90;;;;;;5016800;28;20030;-76
2021/01/22 03:49:32;;;;;;;19.45;3.65;;;12.50;99.90;;;;;;5012134;28;20032;-76
2021/01/22 03:51:59;;;;;;;19.42;3.88;;;12.40;99.90;;;;;;5014722;28;20014;-74
2021/01/22 03:54:25;;;;;;;17.08;3.40;;;12.20;99.90;;;;;;5013174;28;20544;-75
2021/01/22 03:56:51;;;;;;;26.25;4.72;;;12.20;99.90;;;;;;5013352;28;20041;-74
2021/01/22 03:59:17;;;;;;;23.60;4.07;;;12.10;99.90;;;;;;5015288;28;20093;-75
2021/01/22 04:01:43;;;;;;;21.00;4.95;;;12.00;99.90;;;;;;5015673;28;20030;-75
2021/01/22 04:04:08;;;;;;;11.98;3.53;;;11.90;99.90;;;;;;5013974;28;20055;-76
2021/01/22 04:06:36;;;;;;;12.48;5.35;;;11.90;99.90;;;;;;5015010;28;20022;-75
2021/01/22 04:09:05;;;;;;;15.60;3.78;;;11.80;99.90;;;;;;5013250;28;20053;-75
2021/01/22 04:11:32;;;;;;;21.25;4.85;;;11.70;99.90;;;;;;5008677;28;20037;-76
2021/01/22 04:13:58;;;;;;;16.05;4.13;;;11.60;99.90;;;;;;5012955;28;20105;-75
2021/01/22 04:16:24;;;;;;;16.08;3.60;;;11.70;99.90;;;;;;5013896;28;20172;-75
2021/01/22 04:18:49;;;;;;;12.45;4.55;;;11.60;99.90;;;;;;5013080;28;20065;-75
2021/01/22 04:21:15;;;;;;;21.80;4.20;;;11.50;99.90;;;;;;5014380;28;20037;-74
2021/01/22 04:23:41;;;;;;;16.50;4.45;;;11.40;99.90;;;;;;5012210;28;20037;-76
2021/01/22 04:26:07;;;;;;;13.57;3.95;;;11.40;99.90;;;;;;5013301;28;20030;-75
2021/01/22 04:28:33;;;;;;;11.52;4.28;;;11.40;99.90;;;;;;5013628;28;20029;-74
2021/01/22 04:30:59;;;;;;;16.63;4.35;;;11.30;99.90;;;;;;5028431;28;20032;-75
2021/01/22 04:33:24;;;;;;;12.68;5.00;;;11.20;99.90;;;;;;5014070;28;20076;-74
2021/01/22 04:35:50;;;;;;;23.23;5.63;;;11.20;99.90;;;;;;5012717;28;20069;-74
2021/01/22 04:38:16;;;;;;;12.93;4.93;;;11.10;99.90;;;;;;5011962;28;20593;-76
2021/01/22 04:40:43;;;;;;;16.80;4.75;;;11.10;99.90;;;;;;5014145;28;20034;-76
2021/01/22 04:43:09;;;;;;;13.35;4.35;;;11.10;99.90;;;;;;5008789;28;20600;-75
2021/01/22 04:45:35;;;;;;;19.00;5.05;;;11.10;99.90;;;;;;5010687;28;20067;-75
2021/01/22 04:48:03;;;;;;;14.57;4.63;;;11.10;99.90;;;;;;5017900;28;20029;-75
2021/01/22 04:50:31;;;;;;;15.68;4.03;;;11.10;99.90;;;;;;5012626;28;20022;-75
2021/01/22 04:53:01;;;;;;;24.73;7.25;;;11.10;99.90;;;;;;5013726;28;20024;-76
2021/01/22 04:55:30;;;;;;;13.88;5.25;;;11.10;99.90;;;;;;5012124;28;20022;-75
2021/01/22 04:58:00;;;;;;;17.02;5.95;;;11.10;99.90;;;;;;5011763;28;20481;-75
2021/01/22 05:00:26;;;;;;;14.82;4.85;;;11.10;99.90;;;;;;5012862;28;20106;-74
2021/01/22 05:02:55;;;;;;;13.88;4.78;;;11.20;99.90;;;;;;5011971;28;20085;-76
2021/01/22 05:05:21;;;;;;;12.07;4.45;;;11.20;99.90;;;;;;5012651;28;20032;-76
2021/01/22 05:07:48;;;;;;;15.88;4.55;;;11.20;99.90;;;;;;5012021;28;20030;-75
2021/01/22 05:10:14;;;;;;;20.98;5.65;;;11.30;99.90;;;;;;5013762;28;20014;-74
2021/01/22 05:12:41;;;;;;;19.00;5.28;;;11.30;99.90;;;;;;5012227;28;20046;-74
2021/01/22 05:15:20;;;;;;;20.00;6.65;;;11.40;99.90;;;;;;5011541;28;20075;-75
2021/01/22 05:17:53;;;;;;;18.95;4.78;;;11.40;99.90;;;;;;5008491;28;20058;-74
2021/01/22 05:20:46;;;;;;;14.05;4.75;;;11.40;99.90;;;;;;5013291;28;20482;-78
2021/01/22 05:23:11;;;;;;;20.88;5.05;;;11.50;99.90;;;;;;5005161;28;20452;-76
2021/01/22 05:26:00;;;;;;;20.45;4.32;;;11.50;99.90;;;;;;5012432;28;20034;-75
2021/01/22 05:28:38;;;;;;;20.55;6.57;;;11.50;99.90;;;;;;5005865;28;20120;-74
2021/01/22 05:31:10;;;;;;;16.95;4.78;;;11.60;99.90;;;;;;5013447;28;20089;-75
2021/01/22 05:33:38;;;;;;;9.82;3.75;;;11.60;99.90;;;;;;5011899;28;20030;-75
2021/01/22 05:36:27;;;;;;;19.85;5.35;;;11.70;99.90;;;;;;5012039;28;20045;-74
2021/01/22 05:38:55;;;;;;;26.52;5.15;;;11.70;99.90;;;;;;5010175;28;20378;-78
2021/01/22 05:41:22;;;;;;;16.95;4.65;;;11.70;99.90;;;;;;5013699;28;20030;-76
2021/01/22 05:43:50;;;;;;;17.13;4.72;;;11.70;99.90;;;;;;5007501;28;20033;-75
2021/01/22 05:46:19;;;;;;;16.08;5.78;;;11.70;99.90;;;;;;5015771;28;20057;-75
2021/01/22 05:48:45;;;;;;;19.05;4.53;;;11.70;99.90;;;;;;5012109;28;20637;-76
2021/01/22 05:51:12;;;;;;;21.25;4.45;;;11.80;99.90;;;;;;5009776;28;20478;-74
2021/01/22 05:53:46;;;;;;;20.35;4.60;;;11.80;99.90;;;;;;5012801;28;20029;-75
2021/01/22 05:56:17;;;;;;;13.90;4.72;;;11.80;99.90;;;;;;5006127;28;20139;-75
2021/01/22 05:58:47;;;;;;;18.00;5.13;;;11.80;99.90;;;;;;5012145;28;20033;-74
2021/01/22 06:01:21;;;;;;;23.77;4.43;;;11.90;99.90;;;;;;5014334;28;20505;-74
2021/01/22 06:03:53;;;;;;;18.42;4.03;;;11.80;99.90;;;;;;5011734;28;20105;-74
2021/01/22 06:06:20;;;;;;;28.80;4.97;;;11.90;99.90;;;;;;5013229;28;20482;-75
2021/01/22 06:08:51;;;;;;;16.67;4.53;;;11.90;99.90;;;;;;5013171;28;20034;-75
2021/01/22 06:11:22;;;;;;;21.48;5.15;;;11.90;99.90;;;;;;5017062;28;20033;-75
2021/01/22 06:13:51;;;;;;;21.90;4.78;;;12.00;99.90;;;;;;5016399;28;20065;-75
2021/01/22 06:16:25;;;;;;;15.30;4.78;;;12.00;99.90;;;;;;5011069;28;20024;-75
2021/01/22 06:18:57;;;;;;;23.77;5.35;;;12.00;99.90;;;;;;5016714;28;20061;-75
2021/01/22 06:21:25;;;;;;;16.80;4.88;;;12.00;99.90;;;;;;5009210;28;20509;-75
2021/01/22 06:23:52;;;;;;;33.25;5.45;;;12.00;99.90;;;;;;5015054;28;20038;-75
2021/01/22 06:26:19;;;;;;;19.95;7.03;;;12.10;99.90;;;;;;5016079;28;20030;-73
2021/01/22 06:28:50;;;;;;;29.80;6.13;;;12.10;99.90;;;;;;5012733;28;20141;-78
2021/01/22 06:31:20;;;;;;;21.17;6.13;;;12.00;99.90;;;;;;5016919;28;20022;-79
2021/01/22 06:33:47;;;;;;;15.57;4.78;;;12.00;99.90;;;;;;5009461;28;20029;-77
2021/01/22 06:36:15;;;;;;;37.17;5.25;;;12.10;99.90;;;;;;5016756;28;20022;-78
2021/01/22 06:38:41;;;;;;;17.98;5.85;;;12.20;99.90;;;;;;5016677;28;20022;-79
2021/01/22 06:41:11;;;;;;;20.48;5.35;;;12.30;99.90;;;;;;5015749;28;20084;-78
2021/01/22 06:43:38;;;;;;;21.05;4.80;;;12.30;99.90;;;;;;5016692;28;20056;-79
2021/01/22 06:46:17;;;;;;;16.48;4.65;;;12.20;99.90;;;;;;5016530;28;20030;-78
2021/01/22 06:48:54;;;;;;;30.95;6.45;;;12.20;99.90;;;;;;5017958;28;20491;-78
2021/01/22 06:51:22;;;;;;;17.50;4.53;;;12.20;99.90;;;;;;5016932;28;20071;-78
2021/01/22 06:54:06;;;;;;;33.75;5.43;;;12.30;99.90;;;;;;5015827;28;20026;-78
2021/01/22 06:56:33;;;;;;;34.63;5.07;;;12.30;99.90;;;;;;5014759;28;20030;-78
2021/01/22 06:59:37;;;;;;;25.42;6.40;;;12.30;99.90;;;;;;5013661;28;20087;-78
2021/01/22 07:02:24;;;;;;;23.67;5.65;;;12.30;99.90;;;;;;4987961;28;20034;-78
2021/01/22 07:04:50;;;;;;;20.55;5.32;;;12.40;99.90;;;;;;5016930;28;20379;-78
2021/01/22 07:07:45;;;;;;;27.10;7.53;;;12.40;99.90;;;;;;5016566;28;20141;-78
2021/01/22 07:10:12;;;;;;;26.02;5.50;;;12.30;99.90;;;;;;5019158;28;20085;-78
2021/01/22 07:12:39;;;;;;;26.55;6.93;;;12.40;99.90;;;;;;5025808;28;20065;-78
2021/01/22 07:15:20;;;;;;;29.55;6.78;;;12.40;99.90;;;;;;5026691;28;20105;-75
2021/01/22 07:17:50;;;;;;;34.45;7.53;;;12.40;99.90;;;;;;5015983;28;20033;-75
2021/01/22 07:20:16;;;;;;;27.08;6.80;;;12.40;99.90;;;;;;5014490;28;20026;-74
2021/01/22 07:22:53;;;;;;;30.50;7.05;;;12.50;99.90;;;;;;5016271;28;20064;-76
2021/01/22 07:25:40;;;;;;;22.33;5.40;;;12.50;99.90;;;;;;5016322;28;20028;-76
2021/01/22 07:28:12;;;;;;;23.83;5.82;;;12.50;99.90;;;;;;5016272;28;20068;-77
2021/01/22 07:30:42;;;;;;;25.42;6.00;;;12.50;99.90;;;;;;5013514;28;20045;-77
2021/01/22 07:33:26;;;;;;;36.78;6.55;;;12.40;99.90;;;;;;5006132;28;20037;-77
2021/01/22 07:36:14;;;;;;;28.85;5.95;;;12.50;99.90;;;;;;5012988;28;20777;-77
2021/01/22 07:38:41;;;;;;;24.85;9.30;;;12.50;99.90;;;;;;5009684;28;20048;-76
2021/01/22 07:41:09;;;;;;;23.38;7.72;;;12.40;99.90;;;;;;5014438;28;20040;-77
2021/01/22 07:43:35;;;;;;;30.33;8.10;;;12.50;99.90;;;;;;5014672;28;20034;-77
2021/01/22 07:46:08;;;;;;;35.08;8.25;;;12.50;99.90;;;;;;5015626;28;20497;-77
2021/01/22 07:48:35;;;;;;;21.15;7.10;;;12.50;99.90;;;;;;5011383;28;20037;-77
2021/01/22 07:51:39;;;;;;;28.70;6.82;;;12.50;99.90;;;;;;5013603;28;20049;-78
2021/01/22 07:54:05;;;;;;;43.78;9.30;;;12.60;99.90;;;;;;5002325;28;20026;-78
2021/01/22 07:56:42;;;;;;;37.28;7.05;;;12.60;99.90;;;;;;5011490;28;20455;-77
2021/01/22 07:59:10;;;;;;;37.72;8.95;;;12.60;99.90;;;;;;5007244;28;20022;-78
2021/01/22 08:01:36;;;;;;;35.08;6.75;;;12.60;99.90;;;;;;5010334;28;20068;-78
2021/01/22 08:04:02;;;;;;;28.35;6.47;;;12.70;99.90;;;;;;5008675;28;20465;-76
2021/01/22 08:06:28;;;;;;;34.25;7.03;;;12.80;99.90;;;;;;5008868;28;20025;-76
2021/01/22 08:09:05;;;;;;;22.85;6.05;;;12.80;99.90;;;;;;5005594;28;20121;-77
2021/01/22 08:11:30;;;;;;;29.33;7.47;;;12.90;99.90;;;;;;4996740;28;20023;-76
2021/01/22 08:13:56;;;;;;;25.33;7.03;;;13.10;99.90;;;;;;4996882;28;20027;-76
2021/01/22 08:16:23;;;;;;;27.17;7.05;;;13.10;99.90;;;;;;4995398;28;20069;-77
2021/01/22 08:18:50;;;;;;;32.58;7.18;;;13.00;99.90;;;;;;5004036;28;20153;-76
2021/01/22 08:21:16;;;;;;;24.77;5.65;;;13.00;99.90;;;;;;5009214;28;20080;-77
2021/01/22 08:23:47;;;;;;;31.40;6.65;;;12.90;99.90;;;;;;5015034;28;20033;-70
2021/01/22 08:26:14;;;;;;;44.67;7.50;;;13.00;99.90;;;;;;5018440;28;20025;-76
2021/01/22 08:28:41;;;;;;;34.83;7.22;;;13.10;99.90;;;;;;5011941;28;20114;-77
2021/01/22 08:31:12;;;;;;;35.63;7.03;;;13.10;99.90;;;;;;5001446;28;20037;-75
2021/01/22 08:33:38;;;;;;;35.93;6.90;;;13.10;99.90;;;;;;5009799;28;20085;-75
2021/01/22 08:36:08;;;;;;;34.20;8.40;;;13.10;99.90;;;;;;5013259;28;20033;-75
2021/01/22 08:38:35;;;;;;;34.13;8.43;;;13.20;99.90;;;;;;5011178;28;20123;-75
2021/01/22 08:41:01;;;;;;;29.73;7.43;;;13.20;99.90;;;;;;5019904;28;20040;-75
2021/01/22 08:43:27;;;;;;;36.92;7.55;;;13.20;99.90;;;;;;5021876;28;20329;-75
2021/01/22 08:46:11;;;;;;;21.00;7.05;;;13.20;99.90;;;;;;5017899;28;20026;-79
2021/01/22 08:48:37;;;;;;;44.42;9.07;;;13.20;99.90;;;;;;5010620;28;20021;-75
2021/01/22 08:51:04;;;;;;;35.97;7.18;;;13.30;99.90;;;;;;5013247;28;20033;-76
2021/01/22 08:53:30;;;;;;;32.08;8.45;;;13.20;99.90;;;;;;5010190;28;20022;-75
2021/01/22 08:56:16;;;;;;;32.78;7.50;;;13.30;99.90;;;;;;5014933;28;20026;-77
2021/01/22 08:59:01;;;;;;;21.88;6.90;;;13.30;99.90;;;;;;5015768;28;20022;-77
2021/01/22 09:01:55;;;;;;;39.40;5.95;;;13.40;99.90;;;;;;5012876;28;20017;-77
2021/01/22 09:04:34;;;;;;;33.88;7.88;;;13.60;99.90;;;;;;5011279;28;20029;-77
2021/01/22 09:07:03;;;;;;;32.13;6.60;;;13.60;99.90;;;;;;5014346;28;20494;-78
2021/01/22 09:09:49;;;;;;;36.00;7.10;;;13.60;99.90;;;;;;5013277;28;20088;-78
2021/01/22 09:12:24;;;;;;;26.35;6.28;;;13.60;99.90;;;;;;5006921;28;20112;-77
2021/01/22 09:14:50;;;;;;;46.70;8.55;;;13.60;99.90;;;;;;5012259;28;20034;-77
2021/01/22 09:17:23;;;;;;;30.98;7.78;;;13.70;99.90;;;;;;5014542;28;20018;-77
2021/01/22 09:19:59;;;;;;;42.15;6.85;;;13.60;99.90;;;;;;5015103;28;20029;-79
2021/01/22 09:22:32;;;;;;;32.75;7.25;;;13.70;99.90;;;;;;5013920;28;20030;-76
2021/01/22 09:25:00;;;;;;;46.38;7.00;;;13.80;99.90;;;;;;5015051;28;20048;-79
2021/01/22 09:27:26;;;;;;;34.42;7.22;;;13.70;99.90;;;;;;5015449;28;20037;-76
2021/01/22 09:29:51;;;;;;;41.13;8.25;;;13.80;99.90;;;;;;5012956;28;20207;-76
2021/01/22 09:32:17;;;;;;;41.85;7.75;;;13.80;99.90;;;;;;5013271;28;20494;-78
2021/01/22 09:34:43;;;;;;;34.72;9.35;;;13.70;99.90;;;;;;5013429;28;20053;-77
2021/01/22 09:37:09;;;;;;;82.32;14.68;;;13.80;99.90;;;;;;5015114;28;20056;-76
2021/01/22 09:39:35;;;;;;;50.60;10.55;;;13.80;99.90;;;;;;5009485;28;20034;-79
2021/01/22 09:42:01;;;;;;;43.92;8.13;;;13.80;99.90;;;;;;5002874;28;20037;-76
2021/01/22 09:44:27;;;;;;;32.17;9.05;;;13.80;99.90;;;;;;5012319;28;20160;-76
2021/01/22 09:46:53;;;;;;;22.92;8.93;;;13.80;99.90;;;;;;5013587;28;20029;-77
2021/01/22 09:49:19;;;;;;;34.25;9.27;;;13.80;99.90;;;;;;5013798;28;20041;-77
2021/01/22 09:51:44;;;;;;;34.10;8.63;;;13.70;99.90;;;;;;5013973;28;20022;-78
2021/01/22 09:54:10;;;;;;;34.67;9.25;;;13.70;99.90;;;;;;5014256;28;20030;-78
2021/01/22 09:56:39;;;;;;;39.00;13.00;;;13.60;99.90;;;;;;5014457;28;20026;-78
2021/01/22 09:59:08;;;;;;;31.02;10.52;;;13.50;99.90;;;;;;5014949;28;20030;-79
2021/01/22 10:01:37;;;;;;;27.42;9.45;;;13.70;99.90;;;;;;5013735;28;20033;-77
2021/01/22 10:04:04;;;;;;;29.30;11.55;;;13.70;99.90;;;;;;5013110;28;20520;-77
2021/01/22 10:06:30;;;;;;;25.50;10.02;;;13.70;99.90;;;;;;5009843;28;20034;-77
2021/01/22 10:08:56;;;;;;;44.78;11.95;;;13.80;99.90;;;;;;5007118;28;20157;-77
2021/01/22 10:11:22;;;;;;;23.10;10.38;;;14.00;99.90;;;;;;5014173;28;20046;-77
2021/01/22 10:13:55;;;;;;;34.22;8.93;;;13.90;99.90;;;;;;5013220;28;20049;-78
2021/01/22 10:16:25;;;;;;;33.38;9.25;;;13.90;99.90;;;;;;5011403;28;20100;-78
2021/01/22 10:18:53;;;;;;;26.17;8.00;;;14.10;99.90;;;;;;5013571;28;20506;-78
2021/01/22 10:21:21;;;;;;;21.25;7.47;;;14.10;99.90;;;;;;5014170;28;20029;-77
2021/01/22 10:23:47;;;;;;;46.35;16.55;;;14.00;99.90;;;;;;5013593;28;20026;-77
2021/01/22 10:26:14;;;;;;;33.40;12.88;;;13.90;99.90;;;;;;5014407;28;20448;-78
2021/01/22 10:28:40;;;;;;;44.33;14.30;;;13.80;99.90;;;;;;5013203;28;20030;-77
2021/01/22 10:31:06;;;;;;;39.30;13.60;;;13.80;99.90;;;;;;5012726;28;20022;-78
2021/01/22 10:33:33;;;;;;;51.13;19.10;;;14.00;99.90;;;;;;5009558;28;20034;-77
2021/01/22 10:35:59;;;;;;;47.70;17.33;;;14.10;99.90;;;;;;5013484;28;20030;-77
2021/01/22 10:38:26;;;;;;;39.22;13.63;;;13.90;99.90;;;;;;5009953;28;20129;-77
2021/01/22 10:40:56;;;;;;;35.00;13.60;;;13.70;99.90;;;;;;5009982;28;20053;-77
2021/01/22 10:43:23;;;;;;;50.38;14.90;;;13.60;99.90;;;;;;5012405;28;20538;-77
2021/01/22 10:45:49;;;;;;;44.03;13.85;;;13.50;99.90;;;;;;5008274;28;20037;-77
2021/01/22 10:48:17;;;;;;;50.97;15.77;;;13.50;99.90;;;;;;5013571;28;20045;-78
2021/01/22 10:50:43;;;;;;;44.50;14.95;;;13.60;99.90;;;;;;5012426;28;20033;-79
2021/01/22 10:53:09;;;;;;;47.70;21.55;;;13.60;99.90;;;;;;5007052;28;20024;-77
2021/01/22 10:55:35;;;;;;;45.15;19.67;;;13.70;99.90;;;;;;5012886;28;20113;-80
2021/01/22 10:58:01;;;;;;;43.60;19.13;;;13.80;99.90;;;;;;5017091;28;20034;-78
2021/01/22 11:00:27;;;;;;;46.88;17.75;;;13.80;99.90;;;;;;5017559;28;20026;-76
2021/01/22 11:02:53;;;;;;;53.15;17.98;;;13.70;99.90;;;;;;5017233;28;20068;-77
2021/01/22 11:05:19;;;;;;;43.13;16.85;;;13.60;99.90;;;;;;5015496;28;21813;-78
2021/01/22 11:07:44;;;;;;;42.67;17.98;;;13.60;99.90;;;;;;5017789;28;20030;-76
2021/01/22 11:10:11;;;;;;;36.58;15.85;;;13.50;99.90;;;;;;5015692;28;20424;-77
2021/01/22 11:12:37;;;;;;;42.95;16.85;;;13.50;99.90;;;;;;5010097;28;20048;-77
2021/01/22 11:15:04;;;;;;;42.83;17.65;;;13.80;99.90;;;;;;5014891;28;20119;-77
2021/01/22 11:17:30;;;;;;;45.88;18.90;;;13.70;99.90;;;;;;5014619;28;20022;-76
2021/01/22 11:19:56;;;;;;;59.97;25.92;;;13.70;99.90;;;;;;5016784;28;20048;-77
2021/01/22 11:22:22;;;;;;;51.20;21.23;;;13.50;99.90;;;;;;5013551;28;20022;-77
2021/01/22 11:24:48;;;;;;;39.08;20.27;;;13.50;99.90;;;;;;5015623;28;20038;-79
2021/01/22 11:27:14;;;;;;;55.33;24.00;;;13.50;99.90;;;;;;5016081;28;20030;-77
2021/01/22 11:29:40;;;;;;;55.03;25.15;;;13.50;99.90;;;;;;5016621;28;20057;-77
2021/01/22 11:32:06;;;;;;;45.22;23.17;;;13.50;99.90;;;;;;5014267;28;20034;-78
2021/01/22 11:34:35;;;;;;;45.97;19.73;;;13.50;99.90;;;;;;5008064;28;20022;-77
2021/01/22 11:37:01;;;;;;;32.60;15.40;;;13.50;99.90;;;;;;5014977;28;20018;-77
2021/01/22 11:39:27;;;;;;;43.60;20.45;;;13.50;99.90;;;;;;5009592;28;20517;-77
2021/01/22 11:41:53;;;;;;;47.38;21.63;;;13.60;99.90;;;;;;5014635;28;20070;-77
2021/01/22 11:44:19;;;;;;;43.90;16.40;;;13.50;99.90;;;;;;5014807;28;20026;-78
2021/01/22 11:46:45;;;;;;;47.30;20.45;;;13.50;99.90;;;;;;5016545;28;20033;-77
2021/01/22 11:49:11;;;;;;;41.50;16.80;;;13.50;99.90;;;;;;5011714;28;20082;-77
2021/01/22 11:51:37;;;;;;;44.30;14.38;;;13.40;99.90;;;;;;5004621;28;20058;-76
2021/01/22 11:54:04;;;;;;;35.70;16.23;;;13.50;99.90;;;;;;5015855;28;20036;-77
2021/01/22 11:56:31;;;;;;;30.73;16.20;;;13.50;99.90;;;;;;5016056;28;20018;-76
2021/01/22 11:58:57;;;;;;;48.83;14.07;;;13.40;99.90;;;;;;5016494;28;20048;-77
2021/01/22 12:01:24;;;;;;;32.75;14.13;;;13.40;99.90;;;;;;5015403;28;20030;-76
2021/01/22 12:03:51;;;;;;;32.75;14.45;;;13.40;99.90;;;;;;5015227;28;20633;-76
2021/01/22 12:06:17;;;;;;;25.42;10.02;;;13.30;99.90;;;;;;5015395;28;20474;-77
2021/01/22 12:08:43;;;;;;;33.63;13.35;;;13.40;99.90;;;;;;5013721;28;20034;-76
2021/01/22 12:11:10;;;;;;;24.15;11.68;;;13.40;99.90;;;;;;5015301;28;20014;-76
2021/01/22 12:13:35;;;;;;;20.92;10.68;;;13.50;99.90;;;;;;5015346;28;20049;-77
2021/01/22 12:16:02;;;;;;;21.20;10.10;;;13.50;99.90;;;;;;5014334;28;20018;-76
2021/01/22 12:18:28;;;;;;;29.75;9.00;;;13.70;99.90;;;;;;5014821;28;20052;-76
2021/01/22 12:20:54;;;;;;;16.05;7.30;;;13.70;99.90;;;;;;5015572;28;20026;-76
2021/01/22 12:23:20;;;;;;;23.55;7.95;;;13.70;99.90;;;;;;5016811;28;20096;-76
2021/01/22 12:25:46;;;;;;;18.50;6.88;;;13.70;99.90;;;;;;5015438;28;20057;-75
2021/01/22 12:28:13;;;;;;;11.45;5.00;;;13.70;99.90;;;;;;5015310;28;20588;-75
2021/01/22 12:30:40;;;;;;;13.70;3.50;;;13.80;99.90;;;;;;5013896;28;20050;-75
2021/01/22 12:33:06;;;;;;;19.17;3.65;;;13.90;99.90;;;;;;5008604;28;20124;-76
2021/01/22 12:35:32;;;;;;;10.95;3.83;;;14.00;99.90;;;;;;5013688;28;20124;-76
2021/01/22 12:37:58;;;;;;;12.57;4.28;;;14.10;99.90;;;;;;5013744;28;20049;-76
2021/01/22 12:40:24;;;;;;;9.93;2.63;;;14.10;99.90;;;;;;5015329;28;20582;-76